Time;durP1;ratioP1;P1;durP2;ratioP2;P2;SDS_P1;SDS_P2;PMS_P1;PMS_P2;Temp;Humidity;BMP_temperature;BMP_pressure;BME280_temperature;BME280_humidity;BME280_pressure;Samples;Min_cycle;Max_cycle;Signal;HPM_P1;HPM_P2
2022/11/15 00:00:43;;;;;;;29.55;18.45;;;6.70;99.90;;;;;;5038020;28;20029;-86
2022/11/15 00:03:09;;;;;;;25.48;18.10;;;6.80;99.90;;;;;;5031243;28;20037;-86
2022/11/15 00:05:35;;;;;;;24.05;18.67;;;6.90;99.90;;;;;;5042468;28;20037;-86
2022/11/15 00:08:01;;;;;;;24.45;17.52;;;6.90;99.90;;;;;;5004388;28;20696;-86
2022/11/15 00:10:27;;;;;;;26.65;18.95;;;7.10;99.90;;;;;;5029920;28;20040;-86
2022/11/15 00:12:53;;;;;;;24.15;17.38;;;7.20;99.90;;;;;;5032886;28;20041;-86
2022/11/15 00:15:18;;;;;;;28.13;17.58;;;7.30;99.90;;;;;;5039100;28;20053;-86
2022/11/15 00:17:44;;;;;;;25.00;17.20;;;7.30;99.90;;;;;;5039359;28;20512;-86
2022/11/15 00:20:11;;;;;;;24.88;18.65;;;7.40;99.90;;;;;;5026644;28;20170;-86
2022/11/15 00:22:37;;;;;;;24.85;17.88;;;7.40;99.90;;;;;;5020866;28;20049;-85
2022/11/15 00:25:03;;;;;;;26.58;18.33;;;7.50;99.90;;;;;;5025002;28;20029;-86
2022/11/15 00:27:29;;;;;;;25.38;17.45;;;7.50;99.90;;;;;;5043477;28;20057;-86
2022/11/15 00:29:55;;;;;;;26.95;17.88;;;7.50;99.90;;;;;;5020165;28;20088;-85
2022/11/15 00:32:20;;;;;;;27.05;17.73;;;7.60;99.90;;;;;;5023726;28;20041;-86
2022/11/15 00:34:46;;;;;;;24.05;17.27;;;7.60;99.90;;;;;;5029364;28;20032;-86
2022/11/15 00:37:12;;;;;;;24.50;17.15;;;7.70;99.90;;;;;;5028542;28;20037;-86
2022/11/15 00:39:37;;;;;;;26.67;18.05;;;7.70;99.90;;;;;;5037899;28;20041;-86
2022/11/15 00:42:03;;;;;;;25.42;17.67;;;7.80;99.90;;;;;;5051533;28;20037;-85
2022/11/15 00:44:29;;;;;;;26.85;17.83;;;7.80;99.90;;;;;;5049277;28;20044;-86
2022/11/15 00:46:54;;;;;;;26.92;18.27;;;7.80;99.90;;;;;;5051327;28;20041;-86
2022/11/15 00:49:20;;;;;;;26.60;17.95;;;7.80;99.90;;;;;;5047094;28;20044;-86
2022/11/15 00:51:46;;;;;;;27.58;17.35;;;7.80;99.90;;;;;;5021879;28;20064;-86
2022/11/15 00:54:12;;;;;;;26.02;17.13;;;7.90;99.90;;;;;;5024523;28;20068;-86
2022/11/15 00:56:37;;;;;;;26.58;17.30;;;7.90;99.90;;;;;;5016846;28;20064;-86
2022/11/15 00:59:03;;;;;;;25.80;17.13;;;7.90;99.90;;;;;;5032008;28;20026;-86
2022/11/15 01:01:29;;;;;;;28.75;17.45;;;7.90;99.90;;;;;;5055905;28;20068;-86
2022/11/15 01:03:55;;;;;;;27.30;17.17;;;8.00;99.90;;;;;;5058311;28;20021;-86
2022/11/15 01:06:20;;;;;;;26.98;18.45;;;8.00;99.90;;;;;;5048877;28;20113;-85
2022/11/15 01:08:46;;;;;;;26.90;18.02;;;8.00;99.90;;;;;;5049434;28;20040;-86
2022/11/15 01:11:12;;;;;;;26.77;17.85;;;8.00;99.90;;;;;;5029498;28;20041;-86
2022/11/15 01:13:39;;;;;;;24.38;17.42;;;8.00;99.90;;;;;;5047086;28;20835;-85
2022/11/15 01:16:21;;;;;;;24.92;17.58;;;8.00;99.90;;;;;;5031566;28;20041;-86
2022/11/15 01:18:47;;;;;;;26.00;17.17;;;7.90;99.90;;;;;;5037365;28;20524;-86
2022/11/15 01:21:18;;;;;;;23.17;17.35;;;8.00;99.90;;;;;;5044348;28;20041;-85
2022/11/15 01:23:44;;;;;;;24.17;16.65;;;8.00;99.90;;;;;;5049981;28;20090;-86
2022/11/15 01:26:13;;;;;;;27.70;18.02;;;8.00;99.90;;;;;;5025769;28;20070;-86
2022/11/15 01:28:40;;;;;;;24.73;17.70;;;8.00;99.90;;;;;;5025183;28;20045;-86
2022/11/15 01:31:13;;;;;;;26.02;17.33;;;8.00;99.90;;;;;;5049245;28;20045;-85
2022/11/15 01:33:39;;;;;;;24.63;16.85;;;8.00;99.90;;;;;;5050926;28;20040;-85
2022/11/15 01:36:07;;;;;;;23.30;15.82;;;8.00;99.90;;;;;;5027356;28;20456;-86
2022/11/15 01:38:33;;;;;;;27.13;17.15;;;8.10;99.90;;;;;;5046033;28;20246;-86
2022/11/15 01:40:58;;;;;;;25.88;18.60;;;8.10;99.90;;;;;;5055249;28;20033;-86
2022/11/15 01:43:39;;;;;;;26.08;16.98;;;8.10;99.90;;;;;;5047369;28;20037;-85
2022/11/15 01:46:29;;;;;;;27.20;17.00;;;8.00;99.90;;;;;;5067186;28;20036;-85
2022/11/15 01:48:58;;;;;;;24.98;16.58;;;8.10;99.90;;;;;;5043703;28;20049;-85
2022/11/15 01:51:27;;;;;;;24.95;16.10;;;8.10;99.90;;;;;;5024023;28;20280;-86
2022/11/15 01:53:58;;;;;;;23.92;16.65;;;8.10;99.90;;;;;;5045794;28;20111;-86
2022/11/15 01:56:27;;;;;;;26.55;16.42;;;8.10;99.90;;;;;;5048235;28;20238;-85
2022/11/15 01:58:56;;;;;;;25.77;17.08;;;8.10;99.90;;;;;;5046206;28;20044;-86
2022/11/15 02:01:25;;;;;;;25.05;16.13;;;8.20;99.90;;;;;;5029229;28;20596;-86
2022/11/15 02:04:12;;;;;;;29.88;17.88;;;8.20;99.90;;;;;;5042027;28;20041;-85
2022/11/15 02:06:39;;;;;;;31.25;18.80;;;8.20;99.90;;;;;;5038650;28;20045;-86
2022/11/15 02:09:05;;;;;;;25.42;17.25;;;8.20;99.90;;;;;;5041659;28;20037;-86
2022/11/15 02:11:31;;;;;;;31.10;18.60;;;8.20;99.90;;;;;;5044503;28;20094;-86
2022/11/15 02:13:59;;;;;;;32.70;18.75;;;8.20;99.90;;;;;;5044600;28;20049;-86
2022/11/15 02:16:47;;;;;;;34.38;20.13;;;8.10;99.90;;;;;;5020552;28;20053;-86
2022/11/15 02:19:40;;;;;;;35.35;19.38;;;8.20;99.90;;;;;;5030522;28;20037;-86
2022/11/15 02:22:44;;;;;;;37.50;19.95;;;8.10;99.90;;;;;;5021794;28;20088;-87
2022/11/15 02:25:35;;;;;;;34.25;19.45;;;8.20;99.90;;;;;;5018022;28;20037;-87
2022/11/15 02:28:33;;;;;;;37.92;20.52;;;8.30;99.90;;;;;;5025358;28;20052;-87
2022/11/15 02:31:10;;;;;;;37.63;21.15;;;8.30;99.90;;;;;;5022435;28;20041;-87
2022/11/15 02:34:12;;;;;;;33.40;20.08;;;8.40;99.90;;;;;;5030426;28;20120;-87
2022/11/15 02:37:10;;;;;;;37.90;21.00;;;8.30;99.90;;;;;;5019414;28;20055;-86
2022/11/15 02:39:51;;;;;;;37.83;21.20;;;8.40;99.90;;;;;;5019377;28;20060;-86
2022/11/15 02:45:13;;;;;;;41.35;21.58;;;8.40;99.90;;;;;;5028370;28;20045;-87
2022/11/15 02:47:43;;;;;;;36.65;21.20;;;8.40;99.90;;;;;;5011606;28;20049;-86
2022/11/15 02:50:21;;;;;;;39.38;21.80;;;8.40;99.90;;;;;;5037193;28;20025;-87
2022/11/15 02:52:51;;;;;;;39.35;21.05;;;8.40;99.90;;;;;;5043737;28;20037;-86
2022/11/15 02:55:31;;;;;;;40.70;23.98;;;8.50;99.90;;;;;;5045775;28;20033;-87
2022/11/15 02:58:15;;;;;;;36.15;22.08;;;8.50;99.90;;;;;;5033833;28;20120;-86
2022/11/15 03:01:06;;;;;;;38.10;22.30;;;8.50;99.90;;;;;;5017177;28;20040;-87
2022/11/15 03:03:57;;;;;;;44.92;23.35;;;8.50;99.90;;;;;;5021011;28;20048;-86
2022/11/15 03:06:36;;;;;;;40.58;23.38;;;8.60;99.90;;;;;;5020562;28;20474;-86
2022/11/15 03:09:11;;;;;;;41.33;23.65;;;8.70;99.90;;;;;;5018013;28;20050;-86
2022/11/15 03:11:49;;;;;;;36.08;23.77;;;8.60;99.90;;;;;;5032848;28;20064;-87
2022/11/15 03:14:27;;;;;;;38.60;23.80;;;8.60;99.90;;;;;;5015542;28;20052;-87
2022/11/15 03:17:24;;;;;;;38.25;23.77;;;8.60;99.90;;;;;;5053905;28;20120;-86
2022/11/15 03:19:53;;;;;;;42.92;24.73;;;8.60;99.90;;;;;;5026570;28;20059;-87
2022/11/15 03:22:23;;;;;;;39.65;24.15;;;8.60;99.90;;;;;;5032004;28;20037;-87
2022/11/15 03:24:53;;;;;;;37.10;23.00;;;8.60;99.90;;;;;;5026581;28;20091;-86
2022/11/15 03:27:24;;;;;;;39.67;23.48;;;8.60;99.90;;;;;;5035017;28;20037;-87
2022/11/15 03:29:56;;;;;;;39.70;24.77;;;8.70;99.90;;;;;;5034630;28;20086;-87
2022/11/15 03:32:27;;;;;;;51.67;26.15;;;8.70;99.90;;;;;;5065474;28;20048;-87
2022/11/15 03:35:12;;;;;;;41.05;24.40;;;8.70;99.90;;;;;;5048412;28;20061;-86
2022/11/15 03:38:24;;;;;;;41.55;24.67;;;8.70;99.90;;;;;;5030648;28;20099;-87
2022/11/15 03:41:09;;;;;;;43.72;24.92;;;8.70;99.90;;;;;;5006851;28;20445;-86
2022/11/15 03:43:56;;;;;;;43.35;25.67;;;8.70;99.90;;;;;;5038530;28;20106;-87
2022/11/15 03:46:33;;;;;;;43.80;26.38;;;8.80;99.90;;;;;;5037517;28;20042;-87
2022/11/15 03:49:25;;;;;;;50.60;27.52;;;8.80;99.90;;;;;;5018092;28;20052;-87
2022/11/15 03:51:51;;;;;;;44.40;26.15;;;8.80;99.90;;;;;;5048875;28;20034;-87
2022/11/15 03:54:17;;;;;;;46.45;27.10;;;8.80;99.90;;;;;;5038479;28;20096;-87
2022/11/15 03:56:43;;;;;;;46.13;28.85;;;8.80;99.90;;;;;;5034082;28;20033;-86
2022/11/15 03:59:08;;;;;;;46.30;29.15;;;8.90;99.90;;;;;;5055838;28;20068;-87
2022/11/15 04:01:34;;;;;;;46.22;25.60;;;8.90;99.90;;;;;;5014718;28;20045;-86
2022/11/15 04:04:00;;;;;;;45.95;27.17;;;8.90;99.90;;;;;;5034858;28;20040;-87
2022/11/15 04:06:25;;;;;;;50.63;27.33;;;8.90;99.90;;;;;;5029696;28;20040;-87
2022/11/15 04:08:51;;;;;;;43.55;27.77;;;9.00;99.90;;;;;;5032967;28;20065;-87
2022/11/15 04:11:20;;;;;;;46.88;28.67;;;9.00;99.90;;;;;;5050582;28;20049;-87
2022/11/15 04:13:46;;;;;;;50.47;31.27;;;9.10;99.90;;;;;;5022682;28;20060;-87
2022/11/15 04:16:12;;;;;;;57.97;31.50;;;9.00;99.90;;;;;;5027835;28;20038;-87
2022/11/15 04:18:37;;;;;;;48.72;30.50;;;9.10;99.90;;;;;;5045263;28;20056;-87
2022/11/15 04:26:32;;;;;;;59.85;31.73;;;9.20;99.90;;;;;;5045415;28;20152;-86
2022/11/15 04:31:42;;;;;;;49.63;29.80;;;9.20;99.90;;;;;;5065892;28;20042;-86
2022/11/15 04:34:08;;;;;;;51.60;30.75;;;9.30;99.90;;;;;;5041173;28;20045;-86
2022/11/15 04:39:18;;;;;;;49.00;29.80;;;9.30;99.90;;;;;;5041663;28;20049;-86
2022/11/15 04:41:43;;;;;;;53.70;31.15;;;9.40;99.90;;;;;;5039975;28;20037;-87
2022/11/15 04:44:09;;;;;;;46.45;28.52;;;9.40;99.90;;;;;;5058307;23;20512;-26
2022/11/15 04:46:35;;;;;;;47.10;30.08;;;9.50;99.90;;;;;;5051104;28;20034;-28
2022/11/15 04:49:01;;;;;;;52.03;29.15;;;9.50;99.90;;;;;;5033914;28;20068;-28
2022/11/15 04:51:27;;;;;;;45.25;29.40;;;9.50;99.90;;;;;;5048792;28;20041;-28
2022/11/15 04:53:52;;;;;;;51.28;30.15;;;9.60;99.90;;;;;;5055243;28;20052;-27
2022/11/15 04:56:19;;;;;;;48.63;28.75;;;9.60;99.90;;;;;;5030237;28;20037;-27
2022/11/15 04:58:44;;;;;;;50.83;29.25;;;9.60;99.90;;;;;;5024927;28;20030;-29
2022/11/15 05:01:16;;;;;;;50.72;28.50;;;9.70;99.90;;;;;;5034338;28;20039;-28
2022/11/15 05:06:28;;;;;;;44.30;26.48;;;9.80;99.90;;;;;;5044598;28;20168;-28
2022/11/15 05:08:54;;;;;;;43.95;27.38;;;9.80;99.90;;;;;;5039246;28;20036;-28
2022/11/15 05:11:20;;;;;;;46.88;27.92;;;9.80;99.90;;;;;;5036049;28;20045;-28
2022/11/15 05:13:46;;;;;;;46.75;28.25;;;9.80;99.90;;;;;;5029393;28;20426;-28
2022/11/15 05:16:12;;;;;;;45.35;27.17;;;9.80;99.90;;;;;;5036376;28;20037;-28
2022/11/15 05:18:41;;;;;;;44.13;26.60;;;9.90;99.90;;;;;;5037793;28;20425;-28
2022/11/15 05:21:13;;;;;;;38.22;25.95;;;9.90;99.90;;;;;;5032030;28;20043;-27
2022/11/15 05:23:39;;;;;;;39.45;26.05;;;9.90;99.90;;;;;;5018509;28;20073;-28
2022/11/15 05:26:06;;;;;;;40.83;25.92;;;9.90;99.90;;;;;;5054436;28;20111;-28
2022/11/15 05:28:34;;;;;;;39.42;25.92;;;10.00;99.90;;;;;;5036501;28;20041;-27
2022/11/15 05:31:02;;;;;;;39.08;26.10;;;10.00;99.90;;;;;;5036995;28;20045;-27
2022/11/15 05:33:28;;;;;;;35.80;24.13;;;10.10;99.90;;;;;;5036939;28;20045;-27
2022/11/15 05:36:23;;;;;;;37.50;24.40;;;10.10;99.90;;;;;;5036074;28;20037;-28
2022/11/15 05:38:50;;;;;;;40.20;25.70;;;10.10;99.90;;;;;;5025745;28;20115;-27
2022/11/15 05:41:20;;;;;;;39.40;24.90;;;10.20;99.90;;;;;;5036877;28;20448;-28
2022/11/15 05:43:47;;;;;;;35.55;24.30;;;10.30;99.90;;;;;;5036355;28;20033;-27
2022/11/15 05:46:14;;;;;;;41.70;26.08;;;10.30;99.90;;;;;;5034586;28;20037;-27
2022/11/15 05:48:42;;;;;;;40.30;25.50;;;10.40;99.90;;;;;;5034331;28;20102;-27
2022/11/15 05:51:09;;;;;;;42.70;26.45;;;10.40;99.90;;;;;;5019158;28;20048;-28
2022/11/15 05:53:36;;;;;;;38.13;25.33;;;10.40;99.90;;;;;;5034174;28;20056;-28
2022/11/15 05:56:03;;;;;;;34.80;23.75;;;10.50;99.90;;;;;;5051718;28;20108;-27
2022/11/15 05:58:32;;;;;;;42.08;24.80;;;10.50;99.90;;;;;;5032640;28;20095;-27
2022/11/15 06:00:57;;;;;;;35.28;22.88;;;10.60;99.90;;;;;;5033005;28;20490;-27
2022/11/15 06:03:23;;;;;;;31.25;22.30;;;10.60;99.90;;;;;;5034790;28;20033;-27
2022/11/15 06:05:49;;;;;;;35.35;22.25;;;10.60;99.90;;;;;;5034765;28;20033;-27
2022/11/15 06:08:15;;;;;;;33.88;21.13;;;10.60;99.90;;;;;;5033305;28;20041;-27
2022/11/15 06:10:40;;;;;;;29.35;21.30;;;10.70;99.90;;;;;;5034734;28;20037;-27
2022/11/15 06:13:06;;;;;;;32.72;21.88;;;10.60;99.90;;;;;;5034596;28;20037;-28
2022/11/15 06:15:34;;;;;;;33.85;21.67;;;10.70;99.90;;;;;;5034745;28;20053;-26
2022/11/15 06:17:59;;;;;;;25.90;19.98;;;10.70;99.90;;;;;;5034413;28;20072;-26
2022/11/15 06:20:27;;;;;;;31.40;21.33;;;10.70;99.90;;;;;;5052145;28;20457;-26
2022/11/15 06:23:04;;;;;;;31.52;21.27;;;10.70;99.90;;;;;;5034204;28;20072;-27
2022/11/15 06:25:30;;;;;;;31.30;22.65;;;10.80;99.90;;;;;;5034135;28;20033;-28
2022/11/15 06:27:57;;;;;;;29.77;20.52;;;10.80;99.90;;;;;;5034181;28;20037;-27
2022/11/15 06:30:24;;;;;;;30.60;20.70;;;10.80;99.90;;;;;;5034192;28;20119;-26
2022/11/15 06:32:50;;;;;;;24.98;19.88;;;10.80;99.90;;;;;;5034491;28;20033;-26
2022/11/15 06:35:16;;;;;;;30.42;21.23;;;10.80;99.90;;;;;;5034536;28;20362;-28
2022/11/15 06:37:42;;;;;;;27.55;19.83;;;10.90;99.90;;;;;;5034501;28;20033;-27
2022/11/15 06:40:09;;;;;;;28.95;20.50;;;10.90;99.90;;;;;;5034003;28;20094;-27
2022/11/15 06:42:35;;;;;;;28.23;20.40;;;10.90;99.90;;;;;;5034253;28;20041;-27
2022/11/15 06:45:04;;;;;;;29.77;20.08;;;10.90;99.90;;;;;;5033977;28;20032;-27
2022/11/15 06:47:30;;;;;;;25.67;19.65;;;10.90;99.90;;;;;;5034410;28;20119;-27
2022/11/15 06:49:56;;;;;;;28.20;19.70;;;10.90;99.90;;;;;;5033712;28;20459;-27
2022/11/15 06:52:22;;;;;;;28.98;19.60;;;10.90;99.90;;;;;;5034086;28;20510;-27
2022/11/15 06:54:48;;;;;;;26.77;20.10;;;10.90;99.90;;;;;;5034162;28;20041;-27
2022/11/15 06:57:13;;;;;;;27.60;21.10;;;11.00;99.90;;;;;;5049351;28;20033;-28
2022/11/15 06:59:39;;;;;;;25.17;19.92;;;11.00;99.90;;;;;;5017460;28;20033;-27
2022/11/15 07:02:05;;;;;;;28.20;21.17;;;11.00;99.90;;;;;;5033951;28;20186;-27
2022/11/15 07:04:31;;;;;;;28.45;20.10;;;11.00;99.90;;;;;;5034207;28;20077;-27
2022/11/15 07:06:56;;;;;;;26.23;20.02;;;11.00;99.90;;;;;;5034179;28;20444;-27
2022/11/15 07:09:22;;;;;;;32.85;20.70;;;11.00;99.90;;;;;;5034207;28;20144;-27
2022/11/15 07:11:48;;;;;;;27.20;20.83;;;11.00;99.90;;;;;;5034109;28;20041;-27
2022/11/15 07:14:13;;;;;;;27.75;20.00;;;11.00;99.90;;;;;;5033786;28;20037;-27
2022/11/15 07:16:39;;;;;;;26.63;19.70;;;11.00;99.90;;;;;;5033969;28;20122;-27
2022/11/15 07:19:05;;;;;;;34.83;22.33;;;11.00;99.90;;;;;;5048588;28;20370;-27
2022/11/15 07:21:32;;;;;;;31.27;23.20;;;11.10;99.90;;;;;;5034161;28;20033;-27
2022/11/15 07:23:58;;;;;;;27.35;19.70;;;11.10;99.90;;;;;;5033735;28;20111;-27
2022/11/15 07:26:23;;;;;;;29.58;21.42;;;11.10;99.90;;;;;;5051680;28;20052;-27
2022/11/15 07:28:49;;;;;;;27.00;19.30;;;11.20;99.90;;;;;;5033588;28;20045;-27
2022/11/15 07:31:15;;;;;;;25.40;18.77;;;11.10;99.90;;;;;;5034048;28;20037;-27
2022/11/15 07:33:40;;;;;;;25.25;20.02;;;11.20;99.90;;;;;;5044662;28;20136;-27
2022/11/15 07:36:07;;;;;;;26.92;20.20;;;11.20;99.90;;;;;;5034006;28;20043;-27
2022/11/15 07:38:34;;;;;;;25.02;18.27;;;11.20;99.90;;;;;;5033758;28;20041;-27
2022/11/15 07:41:02;;;;;;;28.27;20.98;;;11.30;99.90;;;;;;5033803;28;20114;-27
2022/11/15 07:43:29;;;;;;;25.17;20.85;;;11.30;99.90;;;;;;5033585;28;20517;-27
2022/11/15 07:45:55;;;;;;;28.55;20.60;;;11.40;99.90;;;;;;5033447;28;20080;-27
2022/11/15 07:48:22;;;;;;;28.15;20.38;;;11.40;99.90;;;;;;5033813;28;20068;-27
2022/11/15 07:50:48;;;;;;;26.38;20.50;;;11.50;99.90;;;;;;5033802;28;20485;-27
2022/11/15 07:53:14;;;;;;;27.10;20.23;;;11.50;99.90;;;;;;5033833;28;20037;-27
2022/11/15 07:55:42;;;;;;;26.17;19.40;;;11.50;99.90;;;;;;5033632;28;20040;-28
2022/11/15 07:58:10;;;;;;;28.70;20.70;;;11.50;99.90;;;;;;5033563;28;20041;-27
2022/11/15 08:00:36;;;;;;;28.67;21.70;;;11.50;99.90;;;;;;5033360;28;20037;-27
2022/11/15 08:03:04;;;;;;;27.85;19.95;;;11.60;99.90;;;;;;5035238;28;20048;-27
2022/11/15 08:05:30;;;;;;;28.58;21.15;;;11.60;99.90;;;;;;5037008;28;20044;-27
2022/11/15 08:07:56;;;;;;;28.48;20.77;;;11.60;99.90;;;;;;5054686;28;20064;-27
2022/11/15 08:10:22;;;;;;;29.00;22.10;;;11.60;99.90;;;;;;5037125;28;20043;-27
2022/11/15 08:12:48;;;;;;;26.45;19.65;;;11.70;99.90;;;;;;5037085;28;20087;-27
2022/11/15 08:15:14;;;;;;;28.50;21.10;;;11.70;99.90;;;;;;5052677;28;20445;-28
2022/11/15 08:17:39;;;;;;;27.40;20.73;;;11.70;99.90;;;;;;5037072;28;20041;-27
2022/11/15 08:20:05;;;;;;;28.33;22.17;;;11.70;99.90;;;;;;5051335;28;20389;-27
2022/11/15 08:22:34;;;;;;;27.45;21.52;;;11.70;99.90;;;;;;5037296;28;20505;-27
2022/11/15 08:24:59;;;;;;;28.52;22.77;;;11.70;99.90;;;;;;5036623;28;20048;-27
2022/11/15 08:27:25;;;;;;;30.73;23.42;;;11.70;99.90;;;;;;5036904;28;20045;-27
2022/11/15 08:29:51;;;;;;;29.92;21.75;;;11.70;99.90;;;;;;5036749;28;20099;-27
2022/11/15 08:32:17;;;;;;;28.70;20.70;;;11.80;99.90;;;;;;5036800;28;20107;-27
2022/11/15 08:34:43;;;;;;;27.13;20.50;;;11.80;99.90;;;;;;5036368;28;20099;-27
2022/11/15 08:37:09;;;;;;;30.38;21.13;;;11.80;99.90;;;;;;5036737;28;20044;-28
2022/11/15 08:39:34;;;;;;;25.65;20.05;;;11.80;99.90;;;;;;5036607;28;20099;-28
2022/11/15 08:42:00;;;;;;;28.83;20.83;;;11.80;99.90;;;;;;5036355;28;20045;-27
2022/11/15 08:44:29;;;;;;;26.40;21.65;;;11.80;99.90;;;;;;5036073;28;20119;-27
2022/11/15 08:46:55;;;;;;;27.15;20.77;;;11.80;99.90;;;;;;5036227;28;20073;-27
2022/11/15 08:49:20;;;;;;;25.20;19.73;;;11.80;99.90;;;;;;5036618;28;20087;-28
2022/11/15 08:51:46;;;;;;;23.83;19.70;;;11.80;99.90;;;;;;5036190;28;20375;-27
2022/11/15 08:54:12;;;;;;;22.05;18.90;;;11.80;99.90;;;;;;5051775;28;20044;-27
2022/11/15 08:56:37;;;;;;;24.40;19.38;;;11.80;99.90;;;;;;5046821;28;20072;-28
2022/11/15 08:59:03;;;;;;;25.70;19.67;;;11.80;99.90;;;;;;5036006;28;20029;-27
2022/11/15 09:01:29;;;;;;;22.70;19.45;;;11.90;99.90;;;;;;5036308;28;20041;-28
2022/11/15 09:03:55;;;;;;;23.02;18.75;;;11.90;99.90;;;;;;5035999;28;20502;-28
2022/11/15 09:06:20;;;;;;;20.30;16.95;;;11.90;99.90;;;;;;5035812;28;20072;-28
2022/11/15 09:08:46;;;;;;;20.90;17.13;;;11.90;99.90;;;;;;5036144;28;20079;-27
2022/11/15 09:11:12;;;;;;;19.92;16.40;;;12.00;99.90;;;;;;5035998;28;20532;-28
2022/11/15 09:13:38;;;;;;;21.17;16.52;;;12.00;99.90;;;;;;5035503;28;20106;-27
2022/11/15 09:16:04;;;;;;;18.20;15.57;;;12.00;99.90;;;;;;5035929;28;20036;-28
2022/11/15 09:18:30;;;;;;;18.95;15.98;;;12.00;99.90;;;;;;5036117;28;20087;-28
2022/11/15 09:20:57;;;;;;;18.00;16.10;;;12.00;99.90;;;;;;5035580;28;20075;-27
2022/11/15 09:23:24;;;;;;;19.63;15.63;;;12.00;99.90;;;;;;5035819;28;20039;-27
2022/11/15 09:25:50;;;;;;;17.20;15.10;;;12.10;99.90;;;;;;5053721;28;20037;-28
2022/11/15 09:28:16;;;;;;;17.42;15.32;;;12.10;99.90;;;;;;5035657;28;20044;-27
2022/11/15 09:30:42;;;;;;;17.33;15.48;;;12.10;99.90;;;;;;5035372;28;20045;-28
2022/11/15 09:33:12;;;;;;;18.52;15.48;;;12.10;99.90;;;;;;5035752;28;20094;-27
2022/11/15 09:35:38;;;;;;;17.83;16.02;;;12.10;99.90;;;;;;5035520;28;20032;-28
2022/11/15 09:38:04;;;;;;;20.60;17.33;;;12.10;99.90;;;;;;5035251;28;20041;-27
2022/11/15 09:40:32;;;;;;;22.45;17.80;;;12.10;99.90;;;;;;5052934;28;20045;-27
2022/11/15 09:43:18;;;;;;;20.05;17.35;;;12.10;99.90;;;;;;5035195;28;20400;-28
2022/11/15 09:46:12;;;;;;;26.48;20.63;;;12.20;99.90;;;;;;5046709;28;20122;-27
2022/11/15 09:49:06;;;;;;;27.23;21.08;;;12.10;99.90;;;;;;5039821;28;20128;-27
2022/11/15 09:51:48;;;;;;;27.83;23.08;;;12.10;99.90;;;;;;5032256;28;20049;-28
2022/11/15 09:54:43;;;;;;;29.80;23.17;;;12.10;99.90;;;;;;5035369;28;20041;-27
2022/11/15 09:57:09;;;;;;;27.70;21.35;;;12.10;99.90;;;;;;5033198;28;20239;-27
2022/11/15 09:59:43;;;;;;;30.20;23.27;;;12.10;99.90;;;;;;5044789;28;20580;-28
2022/11/15 10:02:28;;;;;;;32.05;23.90;;;12.10;99.90;;;;;;5051437;28;20041;-27
2022/11/15 10:04:54;;;;;;;28.55;22.85;;;12.00;99.90;;;;;;5047729;28;20433;-28
2022/11/15 10:07:42;;;;;;;27.80;22.30;;;12.00;99.90;;;;;;5034718;28;20033;-28
2022/11/15 10:10:38;;;;;;;30.05;22.63;;;12.00;99.90;;;;;;5049167;28;20041;-27
2022/11/15 10:13:04;;;;;;;31.05;23.30;;;12.00;99.90;;;;;;5034865;28;20107;-28
2022/11/15 10:15:31;;;;;;;27.00;21.85;;;12.00;99.90;;;;;;5034704;28;20033;-28
2022/11/15 10:18:18;;;;;;;26.40;20.98;;;12.00;99.90;;;;;;5034491;28;20087;-28
2022/11/15 10:20:48;;;;;;;27.85;22.75;;;12.00;99.90;;;;;;5051541;28;20045;-27
2022/11/15 10:23:18;;;;;;;27.08;22.73;;;12.20;99.90;;;;;;5051178;28;20033;-28
2022/11/15 10:25:44;;;;;;;27.15;22.85;;;12.30;99.90;;;;;;5033333;28;20037;-27
2022/11/15 10:28:27;;;;;;;23.98;21.38;;;12.40;99.90;;;;;;5034623;28;20047;-28
2022/11/15 10:30:55;;;;;;;24.30;21.17;;;12.50;99.90;;;;;;5034550;28;20080;-28
2022/11/15 10:33:38;;;;;;;25.63;20.48;;;12.50;99.90;;;;;;5034665;28;20628;-27
2022/11/15 10:36:13;;;;;;;24.17;20.53;;;12.50;99.90;;;;;;5017615;28;20071;-27
2022/11/15 10:38:48;;;;;;;19.40;17.15;;;12.60;99.90;;;;;;5051164;28;20327;-28
2022/11/15 10:41:16;;;;;;;19.30;17.20;;;12.60;99.90;;;;;;5050916;28;20573;-27
2022/11/15 10:43:42;;;;;;;18.17;16.25;;;12.60;99.90;;;;;;5034011;28;20041;-27
2022/11/15 10:46:38;;;;;;;17.83;15.68;;;12.50;99.90;;;;;;5034334;28;20037;-28
2022/11/15 10:49:18;;;;;;;17.00;15.00;;;12.60;99.90;;;;;;5039211;28;20111;-28
2022/11/15 10:51:54;;;;;;;18.55;13.50;;;12.60;99.90;;;;;;5034264;28;20111;-28
2022/11/15 10:54:38;;;;;;;16.38;13.10;;;13.00;99.90;;;;;;5034031;28;20053;-28
2022/11/15 10:57:14;;;;;;;13.43;11.73;;;13.40;99.90;;;;;;5034276;28;20486;-28
2022/11/15 10:59:47;;;;;;;16.13;12.77;;;13.80;99.90;;;;;;5034186;28;20459;-28
2022/11/15 11:03:00;;;;;;;19.60;13.93;;;14.30;99.90;;;;;;5034255;28;20045;-28
2022/11/15 11:05:36;;;;;;;12.02;10.60;;;14.60;99.90;;;;;;5028875;28;20049;-28
2022/11/15 11:08:14;;;;;;;11.07;10.00;;;14.80;99.90;;;;;;5050896;28;20401;-28
2022/11/15 11:10:56;;;;;;;12.93;9.82;;;15.00;99.90;;;;;;5050625;28;20037;-28
2022/11/15 11:13:34;;;;;;;10.60;9.18;;;15.20;99.90;;;;;;5050593;28;20045;-28
2022/11/15 11:16:08;;;;;;;10.63;9.23;;;15.20;99.90;;;;;;5050749;28;20036;-28
2022/11/15 11:18:49;;;;;;;9.73;7.50;;;15.10;99.90;;;;;;5034108;28;20041;-28
2022/11/15 11:21:25;;;;;;;9.95;7.53;;;14.80;99.90;;;;;;5034550;28;20041;-28
2022/11/15 11:23:59;;;;;;;7.88;7.18;;;14.90;99.90;;;;;;5050728;28;20060;-28
2022/11/15 11:26:53;;;;;;;7.00;6.05;;;14.90;99.90;;;;;;5050564;28;20037;-28
2022/11/15 11:29:30;;;;;;;7.30;5.70;;;15.40;99.90;;;;;;5033827;28;20055;-28
2022/11/15 11:32:09;;;;;;;7.30;5.82;;;15.50;99.90;;;;;;5050288;28;20072;-28
2022/11/15 11:35:09;;;;;;;7.93;5.78;;;15.40;99.90;;;;;;5050178;28;20041;-28
2022/11/15 11:37:49;;;;;;;6.57;5.85;;;15.10;99.90;;;;;;5053163;28;20457;-28
2022/11/15 11:40:51;;;;;;;7.80;6.18;;;15.00;99.90;;;;;;5054276;28;20045;-28
2022/11/15 11:43:30;;;;;;;7.88;6.35;;;14.90;99.90;;;;;;5054147;28;20351;-27
2022/11/15 11:46:05;;;;;;;6.88;5.82;;;14.70;99.90;;;;;;5053921;28;20107;-28
2022/11/15 11:48:52;;;;;;;6.45;5.70;;;14.60;99.90;;;;;;5054341;28;20037;-28
2022/11/15 11:51:42;;;;;;;8.32;5.97;;;14.40;99.90;;;;;;5053996;28;20040;-29
2022/11/15 11:54:33;;;;;;;10.68;6.50;;;14.20;99.90;;;;;;5054081;28;20041;-28
2022/11/15 11:57:02;;;;;;;7.82;6.45;;;14.10;99.90;;;;;;5037203;28;20123;-28
2022/11/15 11:59:51;;;;;;;7.15;6.45;;;14.10;99.90;;;;;;5053532;28;20116;-28
2022/11/15 12:02:38;;;;;;;6.85;6.07;;;14.10;99.90;;;;;;5023296;28;20085;-28
2022/11/15 12:05:43;;;;;;;5.18;4.60;;;14.60;99.90;;;;;;5053821;28;20055;-28
2022/11/15 12:08:44;;;;;;;;;;;15.10;99.90;;;;;;5037707;28;20040;-27
2022/11/15 12:11:15;;;;;;;4.68;4.03;;;15.50;99.90;;;;;;4957608;28;20302;-27
2022/11/15 12:13:43;;;;;;;4.90;4.32;;;15.60;99.90;;;;;;5040799;28;20074;-27
2022/11/15 12:16:20;;;;;;;5.35;4.10;;;15.60;99.90;;;;;;5053291;28;20037;-28
2022/11/15 12:18:52;;;;;;;7.57;4.53;;;15.80;99.90;;;;;;5053695;28;20037;-28
2022/11/15 12:21:51;;;;;;;4.40;4.00;;;16.10;99.90;;;;;;5053761;28;20041;-26
2022/11/15 12:24:45;;;;;;;5.97;5.20;;;16.30;99.90;;;;;;5036823;28;20052;-27
2022/11/15 12:27:38;;;;;;;4.88;3.58;;;16.20;99.90;;;;;;5053661;28;20036;-26
2022/11/15 12:30:12;;;;;;;5.60;4.88;;;15.90;99.90;;;;;;5053314;28;20041;-27
2022/11/15 12:32:40;;;;;;;7.85;4.25;;;15.80;99.90;;;;;;5053225;28;20040;-27
2022/11/15 12:35:29;;;;;;;4.13;3.72;;;15.90;99.90;;;;;;5053382;28;20513;-27
2022/11/15 12:37:56;;;;;;;4.60;3.78;;;16.50;99.90;;;;;;5036630;28;20043;-26
2022/11/15 12:40:31;;;;;;;5.45;4.00;;;17.40;99.90;;;;;;5053349;28;20088;-27
2022/11/15 12:43:20;;;;;;;5.25;3.80;;;17.90;99.90;;;;;;5053130;28;20134;-27
2022/11/15 12:45:46;;;;;;;5.13;3.47;;;17.70;99.90;;;;;;5036449;28;20104;-27
2022/11/15 12:48:35;;;;;;;5.22;4.05;;;17.30;99.90;;;;;;5034181;28;20048;-27
2022/11/15 12:51:01;;;;;;;6.30;4.22;;;17.00;99.90;;;;;;5050025;28;20184;-27
2022/11/15 12:53:32;;;;;;;5.57;3.05;;;16.90;99.90;;;;;;5036689;28;20490;-27
2022/11/15 12:56:18;;;;;;;5.07;3.08;;;17.40;99.90;;;;;;5052806;28;20041;-27
2022/11/15 12:58:46;;;;;;;8.52;2.80;;;17.50;99.90;;;;;;5053048;28;20120;-27
2022/11/15 13:01:34;;;;;;;3.80;3.20;;;17.90;99.90;;;;;;5036125;28;20045;-27
2022/11/15 13:04:19;;;;;;;3.47;2.72;;;18.50;99.90;;;;;;5035958;28;20091;-27
2022/11/15 13:06:52;;;;;;;5.47;2.55;;;18.20;99.90;;;;;;5035906;28;20040;-27
2022/11/15 13:09:36;;;;;;;3.22;2.70;;;18.20;99.90;;;;;;5052526;28;20052;-27
2022/11/15 13:12:14;;;;;;;3.22;2.50;;;18.30;99.90;;;;;;5036280;28;20045;-28
2022/11/15 13:15:12;;;;;;;5.47;2.47;;;18.60;99.90;;;;;;5052673;28;20124;-28